Other Surface Observations
Issued by NWS Great Falls, MT

Home | Current Version | Previous Version | Text Only | Print | Product List | Glossary On
Versions: 1 2 3 4 5 6 7 8 9 10 11 12 13 14 15 16 17 18 19 20 21 22 23 24 25 26 27 28 29 30 31 32 33 34 35 36 37 38 39 40 41 42 43 44 45 46 47 48 49 50
355
SXUS55 KTFX 081044
OSOTFX
AREA AWOS OBSERVATIONS
NATIONAL WEATHER SERVICE GREAT FALLS MT
0344 AM MST THU DEC 08 2016

METAR KPWD 081045Z AUTO 29010KT 7SM M19/M22 A3059 RMK PLENTYWOOD
METAR KPO1 081045Z AUTO 26010KT 10SM M18/M22 A3066 RMK POPLAR
METAR K1S3 081045Z AUTO 00000KT 10SM M19/M23 A3061 RMK FORSYTH
METAR KS71 081045Z AUTO 00000KT 10SM M23/M26 A3067 RMK CHINOOK
METAR K38S 081045Z AUTO 00000KT 10SM M18/M21 A3033 RMK DEER LODGE
METAR K3U3 081045Z AUTO 21008KT 10SM M21/M24 A3028 RMK ANACONDA
METAR K6S5 081045Z AUTO 34003KT 10SM M12/M14 A3037 RMK HAMILTON
METAR KS59 081045Z AUTO 33003KT 10SM M12/M14 A3048 RMK LIBBY
METAR K88M 081045Z AUTO 00000KT 10SM M18/M21 A3054 RMK EUREKA



USA.gov is the U.S. government's official web portal to all federal, state and local government web resources and services.